sensor_id;sensor_type;location;lat;lon;timestamp;P1;durP1;ratioP1;P2;durP2;ratioP2
9720;SDS011;4899;42.644;23.366;2022-12-19T00:01:36;21.50;;;14.80;;
9720;SDS011;4899;42.644;23.366;2022-12-19T00:04:05;20.13;;;14.33;;
9720;SDS011;4899;42.644;23.366;2022-12-19T00:06:32;19.57;;;13.73;;
9720;SDS011;4899;42.644;23.366;2022-12-19T00:08:58;18.90;;;14.77;;
9720;SDS011;4899;42.644;23.366;2022-12-19T00:11:24;20.40;;;13.77;;
9720;SDS011;4899;42.644;23.366;2022-12-19T00:13:52;22.83;;;14.90;;
9720;SDS011;4899;42.644;23.366;2022-12-19T00:16:21;17.53;;;12.93;;
9720;SDS011;4899;42.644;23.366;2022-12-19T00:18:48;20.17;;;14.10;;
9720;SDS011;4899;42.644;23.366;2022-12-19T00:21:16;22.03;;;15.40;;
9720;SDS011;4899;42.644;23.366;2022-12-19T00:23:43;21.03;;;14.90;;
9720;SDS011;4899;42.644;23.366;2022-12-19T00:28:36;21.73;;;14.63;;
9720;SDS011;4899;42.644;23.366;2022-12-19T00:31:02;21.27;;;13.57;;
9720;SDS011;4899;42.644;23.366;2022-12-19T00:33:28;19.67;;;14.17;;
9720;SDS011;4899;42.644;23.366;2022-12-19T00:35:58;18.77;;;14.10;;
9720;SDS011;4899;42.644;23.366;2022-12-19T00:38:25;22.43;;;14.57;;
9720;SDS011;4899;42.644;23.366;2022-12-19T00:40:50;19.47;;;14.37;;
9720;SDS011;4899;42.644;23.366;2022-12-19T00:43:16;19.97;;;14.40;;
9720;SDS011;4899;42.644;23.366;2022-12-19T00:45:41;20.67;;;15.67;;
9720;SDS011;4899;42.644;23.366;2022-12-19T00:48:07;21.67;;;15.30;;
9720;SDS011;4899;42.644;23.366;2022-12-19T00:50:32;18.97;;;14.13;;
9720;SDS011;4899;42.644;23.366;2022-12-19T00:52:57;22.63;;;14.73;;
9720;SDS011;4899;42.644;23.366;2022-12-19T00:55:23;19.03;;;14.20;;
9720;SDS011;4899;42.644;23.366;2022-12-19T00:57:48;22.03;;;14.33;;
9720;SDS011;4899;42.644;23.366;2022-12-19T01:00:14;22.07;;;15.50;;
9720;SDS011;4899;42.644;23.366;2022-12-19T01:02:40;19.00;;;13.80;;
9720;SDS011;4899;42.644;23.366;2022-12-19T01:05:05;24.23;;;16.03;;
9720;SDS011;4899;42.644;23.366;2022-12-19T01:07:31;21.43;;;14.80;;
9720;SDS011;4899;42.644;23.366;2022-12-19T01:09:56;22.80;;;15.00;;
9720;SDS011;4899;42.644;23.366;2022-12-19T01:12:22;19.97;;;15.60;;
9720;SDS011;4899;42.644;23.366;2022-12-19T01:15:06;20.37;;;15.23;;
9720;SDS011;4899;42.644;23.366;2022-12-19T01:17:32;22.70;;;16.70;;
9720;SDS011;4899;42.644;23.366;2022-12-19T01:20:01;21.47;;;15.17;;
9720;SDS011;4899;42.644;23.366;2022-12-19T01:22:26;20.83;;;14.97;;
9720;SDS011;4899;42.644;23.366;2022-12-19T01:24:51;22.37;;;16.47;;
9720;SDS011;4899;42.644;23.366;2022-12-19T01:27:17;20.70;;;14.90;;
9720;SDS011;4899;42.644;23.366;2022-12-19T01:29:42;19.87;;;15.07;;
9720;SDS011;4899;42.644;23.366;2022-12-19T01:32:08;20.33;;;15.17;;
9720;SDS011;4899;42.644;23.366;2022-12-19T01:34:33;21.97;;;15.87;;
9720;SDS011;4899;42.644;23.366;2022-12-19T01:36:58;21.00;;;15.30;;
9720;SDS011;4899;42.644;23.366;2022-12-19T01:39:24;22.13;;;15.43;;
9720;SDS011;4899;42.644;23.366;2022-12-19T01:41:49;22.80;;;15.03;;
9720;SDS011;4899;42.644;23.366;2022-12-19T01:44:15;20.67;;;14.73;;
9720;SDS011;4899;42.644;23.366;2022-12-19T01:46:45;21.53;;;15.80;;
9720;SDS011;4899;42.644;23.366;2022-12-19T01:49:14;21.77;;;16.10;;
9720;SDS011;4899;42.644;23.366;2022-12-19T01:51:48;22.63;;;15.43;;
9720;SDS011;4899;42.644;23.366;2022-12-19T01:54:19;22.53;;;15.90;;
9720;SDS011;4899;42.644;23.366;2022-12-19T01:56:52;24.00;;;15.87;;
9720;SDS011;4899;42.644;23.366;2022-12-19T01:59:21;22.17;;;15.73;;
9720;SDS011;4899;42.644;23.366;2022-12-19T02:01:51;23.53;;;15.20;;
9720;SDS011;4899;42.644;23.366;2022-12-19T02:04:23;22.80;;;15.93;;
9720;SDS011;4899;42.644;23.366;2022-12-19T02:06:50;24.73;;;15.40;;
9720;SDS011;4899;42.644;23.366;2022-12-19T02:09:18;23.27;;;15.40;;
9720;SDS011;4899;42.644;23.366;2022-12-19T02:11:44;24.50;;;16.33;;
9720;SDS011;4899;42.644;23.366;2022-12-19T02:14:09;21.77;;;15.77;;
9720;SDS011;4899;42.644;23.366;2022-12-19T02:16:46;22.67;;;16.00;;
9720;SDS011;4899;42.644;23.366;2022-12-19T02:34:11;22.10;;;14.77;;
9720;SDS011;4899;42.644;23.366;2022-12-19T02:36:47;24.53;;;17.13;;
9720;SDS011;4899;42.644;23.366;2022-12-19T02:39:18;22.43;;;14.67;;
9720;SDS011;4899;42.644;23.366;2022-12-19T02:41:51;22.50;;;15.70;;
9720;SDS011;4899;42.644;23.366;2022-12-19T02:44:22;22.47;;;15.30;;
9720;SDS011;4899;42.644;23.366;2022-12-19T02:46:51;22.90;;;15.20;;
9720;SDS011;4899;42.644;23.366;2022-12-19T02:49:17;25.17;;;15.83;;
9720;SDS011;4899;42.644;23.366;2022-12-19T02:51:43;23.43;;;14.97;;
9720;SDS011;4899;42.644;23.366;2022-12-19T02:54:08;21.80;;;15.83;;
9720;SDS011;4899;42.644;23.366;2022-12-19T03:02:14;23.63;;;15.80;;
9720;SDS011;4899;42.644;23.366;2022-12-19T03:09:55;23.50;;;15.70;;
9720;SDS011;4899;42.644;23.366;2022-12-19T03:12:30;24.87;;;16.20;;
9720;SDS011;4899;42.644;23.366;2022-12-19T03:15:02;23.77;;;16.03;;
9720;SDS011;4899;42.644;23.366;2022-12-19T03:17:32;21.43;;;15.57;;
9720;SDS011;4899;42.644;23.366;2022-12-19T03:20:02;24.63;;;16.33;;
9720;SDS011;4899;42.644;23.366;2022-12-19T03:22:34;23.03;;;15.70;;
9720;SDS011;4899;42.644;23.366;2022-12-19T03:25:00;20.70;;;14.63;;
9720;SDS011;4899;42.644;23.366;2022-12-19T03:27:27;22.90;;;16.23;;
9720;SDS011;4899;42.644;23.366;2022-12-19T03:29:56;20.87;;;14.47;;
9720;SDS011;4899;42.644;23.366;2022-12-19T03:32:26;21.37;;;15.23;;
9720;SDS011;4899;42.644;23.366;2022-12-19T03:35:04;21.67;;;14.73;;
9720;SDS011;4899;42.644;23.366;2022-12-19T03:37:36;21.00;;;14.50;;
9720;SDS011;4899;42.644;23.366;2022-12-19T03:40:06;22.73;;;15.63;;
9720;SDS011;4899;42.644;23.366;2022-12-19T03:42:36;24.50;;;16.13;;
9720;SDS011;4899;42.644;23.366;2022-12-19T03:45:29;22.67;;;15.67;;
9720;SDS011;4899;42.644;23.366;2022-12-19T03:50:57;23.87;;;16.53;;
9720;SDS011;4899;42.644;23.366;2022-12-19T03:56:25;24.53;;;15.57;;
9720;SDS011;4899;42.644;23.366;2022-12-19T03:59:17;23.47;;;15.10;;
9720;SDS011;4899;42.644;23.366;2022-12-19T04:01:49;25.60;;;15.53;;
9720;SDS011;4899;42.644;23.366;2022-12-19T04:04:17;22.40;;;15.57;;
9720;SDS011;4899;42.644;23.366;2022-12-19T04:06:45;25.10;;;17.20;;
9720;SDS011;4899;42.644;23.366;2022-12-19T04:09:12;24.97;;;15.97;;
9720;SDS011;4899;42.644;23.366;2022-12-19T04:11:39;24.43;;;15.57;;
9720;SDS011;4899;42.644;23.366;2022-12-19T04:14:10;23.13;;;16.43;;
9720;SDS011;4899;42.644;23.366;2022-12-19T04:19:17;22.47;;;15.47;;
9720;SDS011;4899;42.644;23.366;2022-12-19T04:21:49;23.13;;;16.17;;
9720;SDS011;4899;42.644;23.366;2022-12-19T04:24:21;22.37;;;15.13;;
9720;SDS011;4899;42.644;23.366;2022-12-19T04:26:50;23.93;;;14.77;;
9720;SDS011;4899;42.644;23.366;2022-12-19T04:29:19;24.90;;;16.93;;
9720;SDS011;4899;42.644;23.366;2022-12-19T04:31:46;23.67;;;15.03;;
9720;SDS011;4899;42.644;23.366;2022-12-19T04:34:13;24.80;;;16.33;;
9720;SDS011;4899;42.644;23.366;2022-12-19T04:36:42;24.13;;;16.43;;
9720;SDS011;4899;42.644;23.366;2022-12-19T04:39:08;23.30;;;16.60;;
9720;SDS011;4899;42.644;23.366;2022-12-19T04:41:33;25.37;;;16.40;;
9720;SDS011;4899;42.644;23.366;2022-12-19T04:43:58;25.10;;;15.93;;
9720;SDS011;4899;42.644;23.366;2022-12-19T04:46:24;20.67;;;14.37;;
9720;SDS011;4899;42.644;23.366;2022-12-19T04:48:49;23.23;;;15.73;;
9720;SDS011;4899;42.644;23.366;2022-12-19T04:51:15;21.87;;;15.10;;
9720;SDS011;4899;42.644;23.366;2022-12-19T04:53:40;23.03;;;15.63;;
9720;SDS011;4899;42.644;23.366;2022-12-19T04:56:06;23.47;;;16.33;;
9720;SDS011;4899;42.644;23.366;2022-12-19T04:58:31;24.93;;;17.00;;
9720;SDS011;4899;42.644;23.366;2022-12-19T05:01:01;26.03;;;17.43;;
9720;SDS011;4899;42.644;23.366;2022-12-19T05:03:28;24.83;;;16.53;;
9720;SDS011;4899;42.644;23.366;2022-12-19T05:06:01;25.63;;;16.03;;
9720;SDS011;4899;42.644;23.366;2022-12-19T05:08:27;23.97;;;16.63;;
9720;SDS011;4899;42.644;23.366;2022-12-19T05:10:57;26.43;;;16.27;;
9720;SDS011;4899;42.644;23.366;2022-12-19T05:13:23;25.47;;;15.70;;
9720;SDS011;4899;42.644;23.366;2022-12-19T05:15:58;23.20;;;16.33;;
9720;SDS011;4899;42.644;23.366;2022-12-19T05:18:26;24.40;;;15.30;;
9720;SDS011;4899;42.644;23.366;2022-12-19T05:20:52;23.70;;;15.53;;
9720;SDS011;4899;42.644;23.366;2022-12-19T05:23:18;26.33;;;16.80;;
9720;SDS011;4899;42.644;23.366;2022-12-19T05:25:44;22.37;;;15.50;;
9720;SDS011;4899;42.644;23.366;2022-12-19T05:28:10;24.67;;;16.40;;
9720;SDS011;4899;42.644;23.366;2022-12-19T05:30:35;24.10;;;16.10;;
9720;SDS011;4899;42.644;23.366;2022-12-19T05:33:00;22.97;;;16.00;;
9720;SDS011;4899;42.644;23.366;2022-12-19T05:35:26;25.63;;;16.17;;
9720;SDS011;4899;42.644;23.366;2022-12-19T05:37:51;24.63;;;15.37;;
9720;SDS011;4899;42.644;23.366;2022-12-19T05:40:17;21.47;;;15.60;;
9720;SDS011;4899;42.644;23.366;2022-12-19T05:42:42;23.67;;;15.93;;
9720;SDS011;4899;42.644;23.366;2022-12-19T05:45:08;24.40;;;15.97;;
9720;SDS011;4899;42.644;23.366;2022-12-19T05:47:33;21.77;;;15.10;;
9720;SDS011;4899;42.644;23.366;2022-12-19T05:49:59;25.10;;;16.90;;
9720;SDS011;4899;42.644;23.366;2022-12-19T05:52:24;24.70;;;15.63;;
9720;SDS011;4899;42.644;23.366;2022-12-19T05:54:50;21.40;;;15.67;;
9720;SDS011;4899;42.644;23.366;2022-12-19T05:57:16;21.53;;;15.37;;
9720;SDS011;4899;42.644;23.366;2022-12-19T05:59:41;26.47;;;16.43;;
9720;SDS011;4899;42.644;23.366;2022-12-19T06:02:07;23.47;;;16.10;;
9720;SDS011;4899;42.644;23.366;2022-12-19T06:04:32;22.63;;;16.20;;
9720;SDS011;4899;42.644;23.366;2022-12-19T06:06:58;25.10;;;17.03;;
9720;SDS011;4899;42.644;23.366;2022-12-19T06:09:24;24.60;;;16.00;;
9720;SDS011;4899;42.644;23.366;2022-12-19T06:11:49;24.40;;;16.43;;
9720;SDS011;4899;42.644;23.366;2022-12-19T06:14:15;24.13;;;16.90;;
9720;SDS011;4899;42.644;23.366;2022-12-19T06:16:40;29.40;;;18.27;;
9720;SDS011;4899;42.644;23.366;2022-12-19T06:19:06;24.53;;;17.77;;
9720;SDS011;4899;42.644;23.366;2022-12-19T06:21:31;29.10;;;17.07;;
9720;SDS011;4899;42.644;23.366;2022-12-19T06:23:57;23.73;;;16.17;;
9720;SDS011;4899;42.644;23.366;2022-12-19T06:26:22;24.47;;;16.50;;
9720;SDS011;4899;42.644;23.366;2022-12-19T06:28:48;28.37;;;16.43;;
9720;SDS011;4899;42.644;23.366;2022-12-19T06:31:15;24.20;;;16.07;;
9720;SDS011;4899;42.644;23.366;2022-12-19T06:33:41;26.40;;;17.03;;
9720;SDS011;4899;42.644;23.366;2022-12-19T06:36:09;23.33;;;16.83;;
9720;SDS011;4899;42.644;23.366;2022-12-19T06:38:38;24.97;;;16.43;;
9720;SDS011;4899;42.644;23.366;2022-12-19T06:41:03;24.83;;;16.83;;
9720;SDS011;4899;42.644;23.366;2022-12-19T06:43:48;23.10;;;15.77;;
9720;SDS011;4899;42.644;23.366;2022-12-19T06:46:13;23.80;;;15.63;;
9720;SDS011;4899;42.644;23.366;2022-12-19T06:48:39;23.00;;;16.27;;
9720;SDS011;4899;42.644;23.366;2022-12-19T06:51:04;20.90;;;15.53;;
9720;SDS011;4899;42.644;23.366;2022-12-19T06:53:30;23.30;;;15.90;;
9720;SDS011;4899;42.644;23.366;2022-12-19T06:55:56;25.30;;;16.40;;
9720;SDS011;4899;42.644;23.366;2022-12-19T06:58:23;22.50;;;14.93;;
9720;SDS011;4899;42.644;23.366;2022-12-19T07:00:48;21.33;;;15.67;;
9720;SDS011;4899;42.644;23.366;2022-12-19T07:03:15;24.13;;;16.37;;
9720;SDS011;4899;42.644;23.366;2022-12-19T07:05:53;24.00;;;15.70;;
9720;SDS011;4899;42.644;23.366;2022-12-19T07:08:19;22.27;;;15.53;;
9720;SDS011;4899;42.644;23.366;2022-12-19T07:10:44;22.40;;;15.43;;
9720;SDS011;4899;42.644;23.366;2022-12-19T07:13:10;24.03;;;17.07;;
9720;SDS011;4899;42.644;23.366;2022-12-19T07:15:35;24.60;;;16.43;;
9720;SDS011;4899;42.644;23.366;2022-12-19T07:18:03;25.73;;;17.43;;
9720;SDS011;4899;42.644;23.366;2022-12-19T07:20:30;24.57;;;17.13;;
9720;SDS011;4899;42.644;23.366;2022-12-19T07:22:57;24.33;;;16.87;;
9720;SDS011;4899;42.644;23.366;2022-12-19T07:25:23;24.57;;;16.93;;
9720;SDS011;4899;42.644;23.366;2022-12-19T07:27:48;23.13;;;17.33;;
9720;SDS011;4899;42.644;23.366;2022-12-19T07:30:17;25.00;;;17.57;;
9720;SDS011;4899;42.644;23.366;2022-12-19T07:32:43;25.00;;;19.53;;
9720;SDS011;4899;42.644;23.366;2022-12-19T07:35:08;29.57;;;21.30;;
9720;SDS011;4899;42.644;23.366;2022-12-19T07:37:34;28.30;;;19.50;;
9720;SDS011;4899;42.644;23.366;2022-12-19T07:39:59;30.47;;;20.87;;
9720;SDS011;4899;42.644;23.366;2022-12-19T07:42:25;28.53;;;20.27;;
9720;SDS011;4899;42.644;23.366;2022-12-19T07:44:51;26.93;;;19.63;;
9720;SDS011;4899;42.644;23.366;2022-12-19T07:47:16;30.47;;;20.73;;
9720;SDS011;4899;42.644;23.366;2022-12-19T07:49:41;29.33;;;20.23;;
9720;SDS011;4899;42.644;23.366;2022-12-19T07:52:07;26.67;;;19.73;;
9720;SDS011;4899;42.644;23.366;2022-12-19T07:54:33;27.70;;;19.00;;
9720;SDS011;4899;42.644;23.366;2022-12-19T07:57:00;33.17;;;21.27;;
9720;SDS011;4899;42.644;23.366;2022-12-19T07:59:25;30.83;;;20.87;;
9720;SDS011;4899;42.644;23.366;2022-12-19T08:01:51;28.63;;;21.53;;
9720;SDS011;4899;42.644;23.366;2022-12-19T08:04:16;30.50;;;22.60;;
9720;SDS011;4899;42.644;23.366;2022-12-19T08:06:42;32.13;;;22.57;;
9720;SDS011;4899;42.644;23.366;2022-12-19T08:09:07;32.83;;;23.57;;
9720;SDS011;4899;42.644;23.366;2022-12-19T08:11:33;31.13;;;22.13;;
9720;SDS011;4899;42.644;23.366;2022-12-19T08:13:58;33.57;;;23.17;;
9720;SDS011;4899;42.644;23.366;2022-12-19T08:16:25;28.17;;;22.77;;
9720;SDS011;4899;42.644;23.366;2022-12-19T08:18:51;28.73;;;21.23;;
9720;SDS011;4899;42.644;23.366;2022-12-19T08:21:17;30.73;;;22.13;;
9720;SDS011;4899;42.644;23.366;2022-12-19T08:23:44;30.17;;;21.83;;
9720;SDS011;4899;42.644;23.366;2022-12-19T08:26:13;31.60;;;22.37;;
9720;SDS011;4899;42.644;23.366;2022-12-19T08:28:40;30.93;;;22.77;;
9720;SDS011;4899;42.644;23.366;2022-12-19T08:31:07;43.30;;;26.33;;
9720;SDS011;4899;42.644;23.366;2022-12-19T08:33:34;41.53;;;24.43;;
9720;SDS011;4899;42.644;23.366;2022-12-19T08:36:07;33.70;;;24.47;;
9720;SDS011;4899;42.644;23.366;2022-12-19T08:38:35;37.47;;;25.70;;
9720;SDS011;4899;42.644;23.366;2022-12-19T08:41:01;30.77;;;22.37;;
9720;SDS011;4899;42.644;23.366;2022-12-19T08:43:28;32.27;;;22.80;;
9720;SDS011;4899;42.644;23.366;2022-12-19T08:45:54;30.13;;;21.03;;
9720;SDS011;4899;42.644;23.366;2022-12-19T08:48:20;30.93;;;23.17;;
9720;SDS011;4899;42.644;23.366;2022-12-19T08:50:49;31.77;;;21.63;;
9720;SDS011;4899;42.644;23.366;2022-12-19T08:53:18;31.90;;;23.03;;
9720;SDS011;4899;42.644;23.366;2022-12-19T08:55:44;28.80;;;22.30;;
9720;SDS011;4899;42.644;23.366;2022-12-19T08:58:10;29.33;;;21.77;;
9720;SDS011;4899;42.644;23.366;2022-12-19T09:00:36;29.77;;;22.27;;
9720;SDS011;4899;42.644;23.366;2022-12-19T09:03:01;32.30;;;21.37;;
9720;SDS011;4899;42.644;23.366;2022-12-19T09:05:27;30.43;;;21.97;;
9720;SDS011;4899;42.644;23.366;2022-12-19T09:07:52;30.57;;;21.60;;
9720;SDS011;4899;42.644;23.366;2022-12-19T09:10:18;29.07;;;22.27;;
9720;SDS011;4899;42.644;23.366;2022-12-19T09:12:44;27.20;;;21.17;;
9720;SDS011;4899;42.644;23.366;2022-12-19T09:15:09;28.90;;;22.63;;
9720;SDS011;4899;42.644;23.366;2022-12-19T09:17:35;29.57;;;22.70;;
9720;SDS011;4899;42.644;23.366;2022-12-19T09:20:00;28.63;;;21.57;;
9720;SDS011;4899;42.644;23.366;2022-12-19T09:22:25;29.53;;;21.80;;
9720;SDS011;4899;42.644;23.366;2022-12-19T09:24:51;28.40;;;20.67;;
9720;SDS011;4899;42.644;23.366;2022-12-19T09:27:16;28.33;;;20.43;;
9720;SDS011;4899;42.644;23.366;2022-12-19T09:29:42;26.00;;;20.80;;
9720;SDS011;4899;42.644;23.366;2022-12-19T09:32:08;27.90;;;21.83;;
9720;SDS011;4899;42.644;23.366;2022-12-19T09:34:33;30.50;;;20.70;;
9720;SDS011;4899;42.644;23.366;2022-12-19T09:37:00;28.93;;;20.43;;
9720;SDS011;4899;42.644;23.366;2022-12-19T09:39:25;29.93;;;21.03;;
9720;SDS011;4899;42.644;23.366;2022-12-19T09:45:01;29.57;;;20.60;;
9720;SDS011;4899;42.644;23.366;2022-12-19T09:47:49;28.43;;;20.37;;
9720;SDS011;4899;42.644;23.366;2022-12-19T09:53:17;30.37;;;20.97;;
9720;SDS011;4899;42.644;23.366;2022-12-19T09:55:51;32.63;;;22.30;;
9720;SDS011;4899;42.644;23.366;2022-12-19T09:58:34;27.60;;;20.23;;
9720;SDS011;4899;42.644;23.366;2022-12-19T10:01:05;26.10;;;19.90;;
9720;SDS011;4899;42.644;23.366;2022-12-19T10:06:30;27.97;;;18.83;;
9720;SDS011;4899;42.644;23.366;2022-12-19T10:08:55;29.13;;;19.27;;
9720;SDS011;4899;42.644;23.366;2022-12-19T10:19:44;31.57;;;20.67;;
9720;SDS011;4899;42.644;23.366;2022-12-19T10:36:14;27.53;;;19.97;;
9720;SDS011;4899;42.644;23.366;2022-12-19T10:39:02;25.10;;;18.13;;
9720;SDS011;4899;42.644;23.366;2022-12-19T10:41:36;27.73;;;19.40;;
9720;SDS011;4899;42.644;23.366;2022-12-19T10:44:05;30.40;;;19.10;;
9720;SDS011;4899;42.644;23.366;2022-12-19T10:46:44;25.03;;;19.10;;
9720;SDS011;4899;42.644;23.366;2022-12-19T10:51:51;27.37;;;20.13;;
9720;SDS011;4899;42.644;23.366;2022-12-19T10:54:20;24.33;;;18.17;;
9720;SDS011;4899;42.644;23.366;2022-12-19T10:56:47;24.33;;;19.70;;
9720;SDS011;4899;42.644;23.366;2022-12-19T10:59:15;24.43;;;19.67;;
9720;SDS011;4899;42.644;23.366;2022-12-19T11:01:43;22.33;;;17.10;;
9720;SDS011;4899;42.644;23.366;2022-12-19T11:09:28;26.60;;;18.67;;
9720;SDS011;4899;42.644;23.366;2022-12-19T11:12:00;23.30;;;17.23;;
9720;SDS011;4899;42.644;23.366;2022-12-19T11:14:32;21.90;;;16.77;;
9720;SDS011;4899;42.644;23.366;2022-12-19T11:16:59;21.90;;;15.13;;
9720;SDS011;4899;42.644;23.366;2022-12-19T11:19:29;20.07;;;15.63;;
9720;SDS011;4899;42.644;23.366;2022-12-19T11:21:56;19.90;;;15.93;;
9720;SDS011;4899;42.644;23.366;2022-12-19T11:24:38;20.33;;;16.20;;
9720;SDS011;4899;42.644;23.366;2022-12-19T11:27:27;19.13;;;16.03;;
9720;SDS011;4899;42.644;23.366;2022-12-19T11:29:52;22.13;;;16.57;;
9720;SDS011;4899;42.644;23.366;2022-12-19T11:32:31;23.67;;;16.53;;
9720;SDS011;4899;42.644;23.366;2022-12-19T11:35:02;19.67;;;14.77;;
9720;SDS011;4899;42.644;23.366;2022-12-19T11:37:41;20.60;;;15.67;;
9720;SDS011;4899;42.644;23.366;2022-12-19T11:42:50;24.37;;;16.83;;
9720;SDS011;4899;42.644;23.366;2022-12-19T11:45:22;21.17;;;15.30;;
9720;SDS011;4899;42.644;23.366;2022-12-19T11:53:32;17.50;;;14.73;;
9720;SDS011;4899;42.644;23.366;2022-12-19T11:56:16;20.17;;;14.03;;
9720;SDS011;4899;42.644;23.366;2022-12-19T11:58:56;19.43;;;13.20;;
9720;SDS011;4899;42.644;23.366;2022-12-19T12:01:39;17.83;;;13.23;;
9720;SDS011;4899;42.644;23.366;2022-12-19T12:06:52;18.00;;;13.57;;
9720;SDS011;4899;42.644;23.366;2022-12-19T12:21:17;17.80;;;12.57;;
9720;SDS011;4899;42.644;23.366;2022-12-19T12:24:31;16.53;;;12.70;;
9720;SDS011;4899;42.644;23.366;2022-12-19T12:29:50;16.63;;;12.47;;
9720;SDS011;4899;42.644;23.366;2022-12-19T12:35:33;14.93;;;11.27;;
9720;SDS011;4899;42.644;23.366;2022-12-19T12:41:08;17.80;;;12.33;;
9720;SDS011;4899;42.644;23.366;2022-12-19T12:44:14;15.60;;;11.80;;
9720;SDS011;4899;42.644;23.366;2022-12-19T12:46:49;16.87;;;12.63;;
9720;SDS011;4899;42.644;23.366;2022-12-19T12:52:04;17.10;;;11.63;;
9720;SDS011;4899;42.644;23.366;2022-12-19T12:54:35;13.77;;;10.23;;
9720;SDS011;4899;42.644;23.366;2022-12-19T12:57:05;14.63;;;10.57;;
9720;SDS011;4899;42.644;23.366;2022-12-19T13:00:16;13.97;;;10.67;;
9720;SDS011;4899;42.644;23.366;2022-12-19T13:02:44;13.60;;;10.97;;
9720;SDS011;4899;42.644;23.366;2022-12-19T13:07:59;12.20;;;10.17;;
9720;SDS011;4899;42.644;23.366;2022-12-19T13:10:34;12.60;;;10.40;;
9720;SDS011;4899;42.644;23.366;2022-12-19T13:13:07;15.10;;;10.77;;
9720;SDS011;4899;42.644;23.366;2022-12-19T13:15:39;16.00;;;11.47;;
9720;SDS011;4899;42.644;23.366;2022-12-19T13:26:03;16.53;;;10.70;;
9720;SDS011;4899;42.644;23.366;2022-12-19T13:33:45;12.83;;;10.10;;
9720;SDS011;4899;42.644;23.366;2022-12-19T13:41:48;14.03;;;10.97;;
9720;SDS011;4899;42.644;23.366;2022-12-19T13:44:35;15.27;;;10.60;;
9720;SDS011;4899;42.644;23.366;2022-12-19T13:47:04;16.77;;;11.03;;
9720;SDS011;4899;42.644;23.366;2022-12-19T13:49:31;15.43;;;10.73;;
9720;SDS011;4899;42.644;23.366;2022-12-19T13:51:57;13.67;;;11.27;;
9720;SDS011;4899;42.644;23.366;2022-12-19T13:54:28;21.57;;;12.23;;
9720;SDS011;4899;42.644;23.366;2022-12-19T13:56:58;16.13;;;11.53;;
9720;SDS011;4899;42.644;23.366;2022-12-19T13:59:25;14.30;;;11.13;;
9720;SDS011;4899;42.644;23.366;2022-12-19T14:01:56;15.27;;;11.77;;
9720;SDS011;4899;42.644;23.366;2022-12-19T14:04:42;16.07;;;11.10;;
9720;SDS011;4899;42.644;23.366;2022-12-19T14:07:21;15.83;;;11.97;;
9720;SDS011;4899;42.644;23.366;2022-12-19T14:09:53;15.20;;;12.17;;
9720;SDS011;4899;42.644;23.366;2022-12-19T14:12:20;17.07;;;12.57;;
9720;SDS011;4899;42.644;23.366;2022-12-19T14:18:29;19.67;;;12.13;;
9720;SDS011;4899;42.644;23.366;2022-12-19T14:23:45;17.27;;;13.27;;
9720;SDS011;4899;42.644;23.366;2022-12-19T14:26:20;15.63;;;12.43;;
9720;SDS011;4899;42.644;23.366;2022-12-19T14:28:59;16.83;;;12.57;;
9720;SDS011;4899;42.644;23.366;2022-12-19T14:31:28;16.83;;;12.80;;
9720;SDS011;4899;42.644;23.366;2022-12-19T14:33:56;18.60;;;12.83;;
9720;SDS011;4899;42.644;23.366;2022-12-19T14:36:23;15.47;;;12.07;;
9720;SDS011;4899;42.644;23.366;2022-12-19T14:38:51;18.57;;;12.93;;
9720;SDS011;4899;42.644;23.366;2022-12-19T14:41:39;19.60;;;12.60;;
9720;SDS011;4899;42.644;23.366;2022-12-19T14:44:40;17.47;;;12.93;;
9720;SDS011;4899;42.644;23.366;2022-12-19T14:47:53;15.47;;;10.83;;
9720;SDS011;4899;42.644;23.366;2022-12-19T14:50:01;16.83;;;12.43;;
9720;SDS011;4899;42.644;23.366;2022-12-19T14:52:45;16.33;;;11.87;;
9720;SDS011;4899;42.644;23.366;2022-12-19T14:57:44;17.63;;;10.80;;
9720;SDS011;4899;42.644;23.366;2022-12-19T15:02:49;12.70;;;10.43;;
9720;SDS011;4899;42.644;23.366;2022-12-19T15:05:15;13.53;;;9.87;;
9720;SDS011;4899;42.644;23.366;2022-12-19T15:07:45;13.50;;;9.83;;
9720;SDS011;4899;42.644;23.366;2022-12-19T15:15:41;12.10;;;9.57;;
9720;SDS011;4899;42.644;23.366;2022-12-19T15:20:57;12.70;;;9.33;;
9720;SDS011;4899;42.644;23.366;2022-12-19T15:23:32;12.87;;;10.20;;
9720;SDS011;4899;42.644;23.366;2022-12-19T15:26:02;15.63;;;9.67;;
9720;SDS011;4899;42.644;23.366;2022-12-19T15:31:49;17.70;;;10.80;;
9720;SDS011;4899;42.644;23.366;2022-12-19T15:33:59;14.93;;;11.37;;
9720;SDS011;4899;42.644;23.366;2022-12-19T15:36:26;16.77;;;12.40;;
9720;SDS011;4899;42.644;23.366;2022-12-19T15:38:52;19.60;;;13.77;;
9720;SDS011;4899;42.644;23.366;2022-12-19T15:41:19;17.47;;;13.23;;
9720;SDS011;4899;42.644;23.366;2022-12-19T15:43:47;19.20;;;13.60;;
9720;SDS011;4899;42.644;23.366;2022-12-19T15:46:13;18.73;;;14.10;;
9720;SDS011;4899;42.644;23.366;2022-12-19T15:48:39;19.83;;;13.00;;
9720;SDS011;4899;42.644;23.366;2022-12-19T15:51:13;21.83;;;15.27;;
9720;SDS011;4899;42.644;23.366;2022-12-19T15:53:39;20.40;;;15.60;;
9720;SDS011;4899;42.644;23.366;2022-12-19T15:56:04;23.37;;;14.53;;
9720;SDS011;4899;42.644;23.366;2022-12-19T15:58:48;20.03;;;15.33;;
9720;SDS011;4899;42.644;23.366;2022-12-19T16:01:15;21.23;;;15.77;;
9720;SDS011;4899;42.644;23.366;2022-12-19T16:03:40;23.07;;;15.17;;
9720;SDS011;4899;42.644;23.366;2022-12-19T16:06:12;22.70;;;17.07;;
9720;SDS011;4899;42.644;23.366;2022-12-19T16:08:39;22.73;;;16.50;;
9720;SDS011;4899;42.644;23.366;2022-12-19T16:11:04;22.43;;;16.40;;
9720;SDS011;4899;42.644;23.366;2022-12-19T16:13:30;25.70;;;17.53;;
9720;SDS011;4899;42.644;23.366;2022-12-19T16:16:01;24.80;;;18.00;;
9720;SDS011;4899;42.644;23.366;2022-12-19T16:18:28;25.50;;;17.23;;
9720;SDS011;4899;42.644;23.366;2022-12-19T16:20:53;26.47;;;16.80;;
9720;SDS011;4899;42.644;23.366;2022-12-19T16:23:19;24.53;;;19.67;;
9720;SDS011;4899;42.644;23.366;2022-12-19T16:25:49;29.73;;;19.40;;
9720;SDS011;4899;42.644;23.366;2022-12-19T16:28:19;28.63;;;19.93;;
9720;SDS011;4899;42.644;23.366;2022-12-19T16:30:49;27.30;;;19.53;;
9720;SDS011;4899;42.644;23.366;2022-12-19T16:33:21;27.17;;;18.53;;
9720;SDS011;4899;42.644;23.366;2022-12-19T16:35:50;28.80;;;20.50;;
9720;SDS011;4899;42.644;23.366;2022-12-19T16:38:16;27.10;;;20.80;;
9720;SDS011;4899;42.644;23.366;2022-12-19T16:40:42;30.33;;;20.40;;
9720;SDS011;4899;42.644;23.366;2022-12-19T16:43:12;26.70;;;19.57;;
9720;SDS011;4899;42.644;23.366;2022-12-19T16:45:41;26.03;;;19.43;;
9720;SDS011;4899;42.644;23.366;2022-12-19T16:48:20;26.87;;;19.07;;
9720;SDS011;4899;42.644;23.366;2022-12-19T16:50:51;25.83;;;18.73;;
9720;SDS011;4899;42.644;23.366;2022-12-19T16:53:17;25.27;;;18.37;;
9720;SDS011;4899;42.644;23.366;2022-12-19T16:55:43;25.63;;;17.70;;
9720;SDS011;4899;42.644;23.366;2022-12-19T16:58:14;25.50;;;16.93;;
9720;SDS011;4899;42.644;23.366;2022-12-19T17:00:44;28.13;;;19.00;;
9720;SDS011;4899;42.644;23.366;2022-12-19T17:06:05;28.27;;;18.73;;
9720;SDS011;4899;42.644;23.366;2022-12-19T17:08:35;27.63;;;19.07;;
9720;SDS011;4899;42.644;23.366;2022-12-19T17:11:00;22.93;;;18.13;;
9720;SDS011;4899;42.644;23.366;2022-12-19T17:13:29;22.67;;;17.60;;
9720;SDS011;4899;42.644;23.366;2022-12-19T17:15:54;25.33;;;17.57;;
9720;SDS011;4899;42.644;23.366;2022-12-19T17:18:32;23.40;;;16.37;;
9720;SDS011;4899;42.644;23.366;2022-12-19T17:21:00;23.77;;;16.30;;
9720;SDS011;4899;42.644;23.366;2022-12-19T17:23:26;21.67;;;15.13;;
9720;SDS011;4899;42.644;23.366;2022-12-19T17:25:54;21.90;;;15.73;;